Time;durP1;ratioP1;P1;durP2;ratioP2;P2;SDS_P1;SDS_P2;PMS_P1;PMS_P2;Temp;Humidity;BMP_temperature;BMP_pressure;BME280_temperature;BME280_humidity;BME280_pressure;Samples;Min_cycle;Max_cycle;Signal;HPM_P1;HPM_P2
2023/10/16 15:41:46;;;;;;;;;;;8.00;99.90;;;;;;5111799;27;19923;-90
2023/10/16 15:44:11;;;;;;;;;;;7.90;99.90;;;;;;5073062;28;20032;-89
2023/10/16 15:46:37;;;;;;;;;;;7.90;99.90;;;;;;5073214;28;20308;-89
2023/10/16 15:49:02;;;;;;;;;;;8.00;99.90;;;;;;5080639;28;19912;-89
2023/10/16 15:51:32;;;;;;;;;;;8.00;99.90;;;;;;5087361;28;19913;-90
2023/10/16 15:54:16;;;;;;;;;;;8.10;99.90;;;;;;5104392;28;19907;-96
2023/10/16 15:56:43;;;;;;;;;;;8.20;99.90;;;;;;5100032;28;20380;-95
2023/10/16 15:59:08;;;;;;;;;;;8.20;99.90;;;;;;5103546;28;19946;-95
2023/10/16 16:01:35;;;;;;;;;;;8.30;99.90;;;;;;5098661;28;19921;-95
2023/10/16 16:04:01;;;;;;;;;;;8.30;99.90;;;;;;5088986;28;19897;-91
2023/10/16 16:06:29;;;;;;;;;;;8.40;99.90;;;;;;5075317;28;20242;-90
2023/10/16 16:08:55;;;;;;;;;;;8.40;99.90;;;;;;5109259;28;19919;-90
2023/10/16 16:11:27;;;;;;;;;;;8.50;99.90;;;;;;5084002;28;19920;-92
2023/10/16 16:14:00;;;;;;;;;;;8.50;99.90;;;;;;5090041;28;19959;-94
2023/10/16 16:16:25;;;;;;;;;;;8.50;99.90;;;;;;5074505;28;19913;-95
2023/10/16 16:24:58;;;;;;;;;;;8.60;99.90;;;;;;5113919;28;19914;-93
2023/10/16 16:27:23;;;;;;;;;;;8.60;99.90;;;;;;5092339;28;19912;-95
2023/10/16 16:29:49;;;;;;;;;;;8.60;99.90;;;;;;5095054;28;21795;-96
2023/10/16 16:32:17;;;;;;;;;;;8.50;99.90;;;;;;5116576;28;19931;-94
2023/10/16 16:34:43;;;;;;;;;;;8.50;99.90;;;;;;5101432;28;19915;-94
2023/10/16 16:37:08;;;;;;;;;;;8.60;99.90;;;;;;5100837;28;19934;-95
2023/10/16 16:39:35;;;;;;;;;;;8.60;99.90;;;;;;5097842;28;20371;-94
2023/10/16 16:42:05;;;;;;;;;;;8.60;99.90;;;;;;5098244;28;19952;-96
2023/10/16 16:44:34;;;;;;;;;;;8.60;99.90;;;;;;5110310;28;19908;-95
2023/10/16 16:47:04;;;;;;;;;;;8.50;99.90;;;;;;5248098;22;19929;-96
2023/10/16 16:49:30;;;;;;;;;;;8.50;99.90;;;;;;5101918;28;19955;-94
2023/10/16 16:51:55;;;;;;;;;;;8.50;99.90;;;;;;5073212;28;19908;-92
2023/10/16 16:54:21;;;;;;;;;;;8.60;99.90;;;;;;5085781;28;19927;-95
2023/10/16 16:56:47;;;;;;;;;;;8.60;99.90;;;;;;5076281;28;19909;-93
2023/10/16 16:59:13;;;;;;;;;;;8.60;99.90;;;;;;5062567;28;19912;-95
2023/10/16 17:01:41;;;;;;;;;;;8.50;99.90;;;;;;5070912;28;19908;-93
2023/10/16 17:04:07;;;;;;;;;;;8.50;99.90;;;;;;5076942;28;19918;-92
2023/10/16 17:06:35;;;;;;;;;;;8.50;99.90;;;;;;5075412;28;20280;-94
2023/10/16 17:09:01;;;;;;;;;;;8.50;99.90;;;;;;5070728;28;19912;-95
2023/10/16 17:11:26;;;;;;;;;;;8.50;99.90;;;;;;5085260;28;19983;-96
2023/10/16 17:13:53;;;;;;;;;;;8.50;99.90;;;;;;5081821;28;19912;-91
2023/10/16 17:16:19;;;;;;;;;;;8.50;99.90;;;;;;5075382;28;19912;-92
2023/10/16 17:18:44;;;;;;;;;;;8.50;99.90;;;;;;5075365;28;19913;-93
2023/10/16 17:21:13;;;;;;;;;;;8.50;99.90;;;;;;5079871;28;20038;-92
2023/10/16 17:23:42;;;;;;;;;;;8.50;99.90;;;;;;5098236;28;19912;-93
2023/10/16 17:26:10;;;;;;;;;;;8.50;99.90;;;;;;5076389;28;19950;-93
2023/10/16 17:28:36;;;;;;;;;;;8.50;99.90;;;;;;5076452;28;20383;-96
2023/10/16 17:31:02;;;;;;;;;;;8.50;99.90;;;;;;5080003;28;19916;-94
2023/10/16 17:33:27;;;;;;;;;;;8.50;99.90;;;;;;5081672;28;20252;-95
2023/10/16 17:36:02;;;;;;;;;;;8.50;99.90;;;;;;5080432;28;19935;-92
2023/10/16 17:38:28;;;;;;;;;;;8.40;99.90;;;;;;5078362;28;19916;-92
2023/10/16 17:40:54;;;;;;;;;;;8.40;99.90;;;;;;5077552;28;19912;-92
2023/10/16 17:43:19;;;;;;;;;;;8.40;99.90;;;;;;5070938;28;19912;-93
2023/10/16 17:45:46;;;;;;;;;;;8.30;99.90;;;;;;5075634;28;19927;-93
2023/10/16 17:48:12;;;;;;;;;;;8.30;99.90;;;;;;5064091;28;19924;-95
2023/10/16 17:50:42;;;;;;;;;;;8.20;99.90;;;;;;5057080;28;19979;-94
2023/10/16 17:53:11;;;;;;;;;;;8.20;99.90;;;;;;5054467;28;19939;-92
2023/10/16 17:55:36;;;;;;;;;;;8.20;99.90;;;;;;5061019;28;20377;-91
2023/10/16 17:58:03;;;;;;;;;;;8.10;99.90;;;;;;5050885;28;19913;-92
2023/10/16 18:00:29;;;;;;;;;;;8.00;99.90;;;;;;5050864;28;19912;-94
2023/10/16 18:02:56;;;;;;;;;;;8.00;99.90;;;;;;5054282;28;19920;-93
2023/10/16 18:05:23;;;;;;;;;;;8.00;99.90;;;;;;5057113;28;19936;-94
2023/10/16 18:07:50;;;;;;;;;;;7.90;99.90;;;;;;5072041;28;19919;-93
2023/10/16 18:10:16;;;;;;;;;;;7.90;99.90;;;;;;5054631;28;19912;-92
2023/10/16 18:12:41;;;;;;;;;;;7.90;99.90;;;;;;5057415;28;19912;-91
2023/10/16 18:15:08;;;;;;;;;;;7.80;99.90;;;;;;5052184;28;19912;-90
2023/10/16 18:17:35;;;;;;;;;;;7.80;99.90;;;;;;5055754;28;19917;-94
2023/10/16 18:20:07;;;;;;;;;;;7.70;99.90;;;;;;5065561;28;19916;-94
2023/10/16 18:22:33;;;;;;;;;;;7.70;99.90;;;;;;5055289;28;20327;-93
2023/10/16 18:24:59;;;;;;;;;;;7.70;99.90;;;;;;5058101;28;19924;-91
2023/10/16 18:27:24;;;;;;;;;;;7.70;99.90;;;;;;5061518;28;19912;-95
2023/10/16 18:29:50;;;;;;;;;;;7.70;99.90;;;;;;5061279;28;19920;-89
2023/10/16 18:32:16;;;;;;;;;;;7.70;99.90;;;;;;5057158;28;19908;-95
2023/10/16 18:34:41;;;;;;;;;;;7.70;99.90;;;;;;5085428;28;19912;-90
2023/10/16 18:37:08;;;;;;;;;;;7.70;99.90;;;;;;5075874;28;19966;-89
2023/10/16 18:39:34;;;;;;;;;;;7.70;99.90;;;;;;5073687;28;19999;-90
2023/10/16 18:42:02;;;;;;;;;;;7.70;99.90;;;;;;5054821;28;20011;-89
2023/10/16 18:44:32;;;;;;;;;;;7.70;99.90;;;;;;5084876;28;19913;-89
2023/10/16 18:46:58;;;;;;;;;;;7.60;99.90;;;;;;5074888;28;19917;-90
2023/10/16 18:49:23;;;;;;;;;;;7.60;99.90;;;;;;5083109;28;19951;-94
2023/10/16 18:51:50;;;;;;;;;;;7.60;99.90;;;;;;5091559;28;19912;-94
2023/10/16 18:54:15;;;;;;;;;;;7.60;99.90;;;;;;5073551;28;19914;-92
2023/10/16 18:56:41;;;;;;;;;;;7.50;99.90;;;;;;5073662;28;19999;-95
2023/10/16 18:59:07;;;;;;;;;;;7.50;99.90;;;;;;5073785;28;19912;-95
2023/10/16 19:01:33;;;;;;;;;;;7.50;99.90;;;;;;5078512;28;19951;-94
2023/10/16 19:04:00;;;;;;;;;;;7.40;99.90;;;;;;5077533;28;19914;-93
2023/10/16 19:06:26;;;;;;;;;;;7.40;99.90;;;;;;5077345;28;19908;-94
2023/10/16 19:08:55;;;;;;;;;;;7.30;99.90;;;;;;5077712;28;19915;-95
2023/10/16 19:11:21;;;;;;;;;;;7.30;99.90;;;;;;5077059;28;20360;-94
2023/10/16 19:13:47;;;;;;;;;;;7.30;99.90;;;;;;5078350;28;19908;-93
2023/10/16 19:16:12;;;;;;;;;;;7.20;99.90;;;;;;5077136;28;19915;-96
2023/10/16 19:18:38;;;;;;;;;;;7.20;99.90;;;;;;5076914;28;19908;-94
2023/10/16 19:21:03;;;;;;;;;;;7.20;99.90;;;;;;5077494;28;19908;-93
2023/10/16 19:23:31;;;;;;;;;;;7.10;99.90;;;;;;5075297;28;20285;-91
2023/10/16 19:26:07;;;;;;;;;;;7.10;99.90;;;;;;5091428;28;19912;-94
2023/10/16 19:28:33;;;;;;;;;;;7.00;99.90;;;;;;5076628;28;19998;-93
2023/10/16 19:30:59;;;;;;;;;;;7.00;99.90;;;;;;5076334;28;19912;-95
2023/10/16 19:33:24;;;;;;;;;;;7.00;99.90;;;;;;5076346;28;19908;-91
2023/10/16 19:35:51;;;;;;;;;;;7.00;99.90;;;;;;5076478;28;19912;-92
